Terminal Aerodrome Forecast
Issued by NWS Louisville, KY

Home | Current Version | Previous Version | Text Only | Print | Product List | Glossary On
Versions: 1 2 3 4 5 6 7 8 9 10 11 12 13 14 15 16 17 18 19 20 21
639
FTUS43 KLMK 262200 AAA
TAFLEX
TAF AMD
KLEX 262200Z 2622/2718 22007KT P6SM VCTS SCT050CB BKN080
     FM270200 27010G20KT 5SM SHRA VCTS BKN035CB
     FM270500 VRB06KT 6SM BR SCT020 BKN040
     FM271500 20006KT 6SM -SHRA VCTS SCT025CB BKN100=

USA.gov is the U.S. government's official web portal to all federal, state and local government web resources and services.